Terminal Aerodrome Forecast
Issued by NWS Norman, OK

Home | Current Version | Previous Version | Text Only | Print | Product List | Glossary On
Versions: 1 2 3 4 5 6 7 8 9 10 11 12 13 14 15 16
000
FTUS44 KOUN 310606 RRA
TAFOKC
TAF
KOKC 310606Z 3106/0106 13006KT P6SM BKN250
     FM310900 14006KT P6SM BKN020
     FM311600 17009KT P6SM BKN030 BKN250 PROB30 3116/3122 4SM -TSRA
      OVC015CB
     FM312200 13010KT P6SM BKN050
      TEMPO 3122/0102 3SM TSRA OVC030CB
     FM010200 05006KT P6SM OVC030=

USA.gov is the U.S. government's official web portal to all federal, state and local government web resources and services.